Round Peak, North Carolina
Current Conditions -  °F | °C
As of 8:35 AM on Wednesday 22 Oct 2014 (Local Time) from KMWK Reporting Station
Clear Clear  
Wind Chill: 50°   Ceiling: Unl
Heat Index: 50°   Visibility: 10mi
Dew Point: 38°   Wind: 5mph
Humidity: 63%   Direction: 310°NW
Pressure: 30.07"   Gusts: NA
Location:  36.484°N, 80.6333°W
Report Text: KMWK 221235Z AUTO 31004KT 10SM CLR 10/04 A3007 RMK AO2 T01020035
Loading
Personal Weather Stations






























Interactive Weather Map
Tropical Storm Tracking
New forecast layout! Learn more

10-Day Weather Forecast

Advertisements
Track Severe Weather on mobile